createdAt,value
2023-05-24T00:01:25.726Z,97080.69
2023-05-24T00:03:53.853Z,97093.81
2023-05-24T00:06:21.967Z,97095.13
2023-05-24T00:08:51.035Z,97095.13
2023-05-24T00:11:19.252Z,97088.41
2023-05-24T00:13:47.043Z,97096.16
2023-05-24T00:16:17.901Z,97103.88
2023-05-24T00:18:47.030Z,97103.63
2023-05-24T00:21:15.238Z,97083.03
2023-05-24T00:23:44.074Z,97103.25
2023-05-24T00:26:13.208Z,97103.44
2023-05-24T00:28:41.057Z,97108.50
2023-05-24T00:31:09.240Z,97111.03
2023-05-24T00:33:36.988Z,97106.22
2023-05-24T00:36:04.913Z,97116.44
2023-05-24T00:38:32.753Z,97121.88
2023-05-24T00:41:01.473Z,97119.16
2023-05-24T00:43:30.547Z,97106.25
2023-05-24T00:46:15.381Z,97112.31
2023-05-24T00:48:43.782Z,97112.31
2023-05-24T00:51:12.019Z,97109.44
2023-05-24T00:53:39.932Z,97115.13
2023-05-24T00:56:08.391Z,97118.97
2023-05-24T00:58:37.645Z,97123.16
2023-05-24T01:01:06.112Z,97117.59
2023-05-24T01:03:34.190Z,97118.16
2023-05-24T01:06:03.868Z,97110.72
2023-05-24T01:08:43.725Z,97085.31
2023-05-24T01:11:19.339Z,97122.38
2023-05-24T01:13:55.035Z,97094.09
2023-05-24T01:16:26.127Z,97112.22
2023-05-24T01:18:56.240Z,97102.94
2023-05-24T01:21:39.827Z,97102.00
2023-05-24T01:24:15.638Z,97103.22
2023-05-24T01:26:57.643Z,97101.06
2023-05-24T01:29:26.053Z,97095.50
2023-05-24T01:31:53.846Z,97108.72
2023-05-24T01:34:21.602Z,97113.19
2023-05-24T01:36:49.305Z,97112.66
2023-05-24T01:39:17.164Z,97103.63
2023-05-24T01:41:50.571Z,97111.56
2023-05-24T01:44:26.724Z,97104.38
2023-05-24T01:47:00.736Z,97101.94
2023-05-24T01:49:32.595Z,97105.75
2023-05-24T01:52:03.287Z,97098.97
2023-05-24T01:54:34.554Z,97095.00
2023-05-24T01:57:06.620Z,97091.03
2023-05-24T01:59:36.261Z,97095.53
2023-05-24T02:02:04.191Z,97096.34
2023-05-24T02:04:32.151Z,97094.22
2023-05-24T02:06:59.895Z,97058.03
2023-05-24T02:09:27.711Z,97099.16
2023-05-24T02:11:55.475Z,97095.41
2023-05-24T02:14:24.449Z,97091.31
2023-05-24T02:16:58.697Z,97096.34
2023-05-24T02:19:26.855Z,97094.97
2023-05-24T02:21:54.676Z,97093.44
2023-05-24T02:24:22.356Z,97101.38
2023-05-24T02:26:50.190Z,97073.00
2023-05-24T02:29:17.921Z,97102.09
2023-05-24T02:31:45.687Z,97099.28
2023-05-24T02:34:14.811Z,97105.47
2023-05-24T02:36:42.678Z,97109.13
2023-05-24T02:39:10.913Z,97110.59
2023-05-24T02:41:38.762Z,97112.59
2023-05-24T02:44:06.751Z,97106.56
2023-05-24T02:46:34.580Z,97102.09
2023-05-24T02:49:02.349Z,97111.50
2023-05-24T02:51:32.634Z,97110.31
2023-05-24T02:54:01.187Z,97112.97
2023-05-24T02:56:29.203Z,97106.47
2023-05-24T02:58:57.025Z,97104.72
2023-05-24T03:01:24.893Z,97076.28
2023-05-24T03:03:52.857Z,97105.56
2023-05-24T03:06:20.805Z,97087.31
2023-05-24T03:08:51.088Z,97112.50
2023-05-24T03:11:22.136Z,97113.88
2023-05-24T03:13:50.126Z,97117.97
2023-05-24T03:16:18.434Z,97123.47
2023-05-24T03:18:46.266Z,97130.47
2023-05-24T03:21:14.136Z,97126.63
2023-05-24T03:23:41.973Z,97129.13
2023-05-24T03:26:13.189Z,97129.19
2023-05-24T03:28:41.997Z,97131.56
2023-05-24T03:31:10.030Z,97126.53
2023-05-24T03:33:37.851Z,97128.50
2023-05-24T03:36:06.217Z,97127.84
2023-05-24T03:38:33.941Z,97132.03
2023-05-24T03:41:01.690Z,97124.63
2023-05-24T03:43:30.942Z,97137.44
2023-05-24T03:45:58.759Z,97141.72
2023-05-24T03:48:26.524Z,97133.78
2023-05-24T03:50:54.266Z,97126.22
2023-05-24T03:53:23.435Z,97095.81
2023-05-24T03:55:51.676Z,97120.34
2023-05-24T03:58:19.436Z,97114.25
2023-05-24T04:00:48.620Z,97127.75
2023-05-24T04:03:16.548Z,97126.38
2023-05-24T04:05:44.367Z,97131.47
2023-05-24T04:08:12.353Z,97133.78
2023-05-24T04:10:40.255Z,97121.00
2023-05-24T04:13:08.092Z,97130.84
2023-05-24T04:15:35.937Z,97134.41
2023-05-24T04:18:05.418Z,97130.31
2023-05-24T04:20:33.335Z,97121.00
2023-05-24T04:23:01.227Z,97123.81
2023-05-24T04:25:29.591Z,97116.19
2023-05-24T04:27:57.434Z,97123.56
2023-05-24T04:30:25.174Z,97125.31
2023-05-24T04:32:53.847Z,97121.53
2023-05-24T04:35:23.417Z,97124.09
2023-05-24T04:37:51.118Z,97127.38
2023-05-24T04:40:20.770Z,97123.78
2023-05-24T04:42:48.517Z,97125.75
2023-05-24T04:45:16.686Z,97127.44
2023-05-24T04:47:44.460Z,97127.06
2023-05-24T04:50:12.270Z,97129.97
2023-05-24T04:52:41.379Z,97128.41
2023-05-24T04:55:09.822Z,97125.81
2023-05-24T04:57:37.555Z,97120.06
2023-05-24T05:00:07.442Z,97128.44
2023-05-24T05:02:35.445Z,97133.94
2023-05-24T05:05:03.192Z,97138.22
2023-05-24T05:07:31.064Z,97133.63
2023-05-24T05:10:00.172Z,97141.31
2023-05-24T05:12:27.878Z,97141.88
2023-05-24T05:14:56.067Z,97145.53
2023-05-24T05:17:23.862Z,97137.25
2023-05-24T05:19:51.657Z,97138.81
2023-05-24T05:22:19.581Z,97143.66
2023-05-24T05:24:47.335Z,97142.72
2023-05-24T05:27:17.149Z,97132.16
2023-05-24T05:29:45.064Z,97142.00
2023-05-24T05:32:12.859Z,97132.03
2023-05-24T05:34:40.652Z,97139.81
2023-05-24T05:37:08.536Z,97136.25
2023-05-24T05:39:36.571Z,97128.69
2023-05-24T05:42:04.373Z,97135.16
2023-05-24T05:44:33.482Z,97134.53
2023-05-24T05:47:01.198Z,97102.31
2023-05-24T05:49:29.101Z,97131.53
2023-05-24T05:51:56.835Z,97134.94
2023-05-24T05:54:24.635Z,97138.47
2023-05-24T05:56:52.380Z,97133.94
2023-05-24T05:59:20.812Z,97142.28
2023-05-24T06:01:49.957Z,97141.63
2023-05-24T06:04:17.900Z,97144.25
2023-05-24T06:06:49.644Z,97134.47
2023-05-24T06:09:17.634Z,97136.22
2023-05-24T06:11:45.840Z,97142.50
2023-05-24T06:14:19.672Z,97126.91
2023-05-24T06:16:48.180Z,97142.28
2023-05-24T06:19:18.251Z,97143.44
2023-05-24T06:21:48.208Z,97138.22
2023-05-24T06:24:20.303Z,97147.91
2023-05-24T06:26:48.406Z,97137.13
2023-05-24T06:29:16.921Z,97144.22
2023-05-24T06:31:44.666Z,97152.50
2023-05-24T06:34:12.456Z,97147.34
2023-05-24T06:36:42.948Z,97147.44
2023-05-24T06:39:11.254Z,97136.84
2023-05-24T06:41:39.104Z,97152.25
2023-05-24T06:44:06.994Z,97154.66
2023-05-24T06:46:35.320Z,97153.66
2023-05-24T06:49:03.188Z,97166.16
2023-05-24T06:51:33.916Z,97161.91
2023-05-24T06:54:03.086Z,97157.88
2023-05-24T06:56:31.030Z,97167.94
2023-05-24T06:58:59.739Z,97164.00
2023-05-24T07:01:27.606Z,97167.47
2023-05-24T07:03:55.434Z,97174.69
2023-05-24T07:06:23.135Z,97183.63
2023-05-24T07:08:50.847Z,97181.19
2023-05-24T07:11:20.017Z,97183.06
2023-05-24T07:13:47.856Z,97182.44
2023-05-24T07:16:16.289Z,97167.25
2023-05-24T07:18:44.061Z,97180.38
2023-05-24T07:21:11.944Z,97187.53
2023-05-24T07:23:39.603Z,97189.47
2023-05-24T07:26:07.530Z,97194.28
2023-05-24T07:28:37.949Z,97197.31
2023-05-24T07:31:06.022Z,97198.41
2023-05-24T07:33:33.747Z,97201.75
2023-05-24T07:36:01.617Z,97197.09
2023-05-24T07:38:31.030Z,97204.22
2023-05-24T07:41:00.966Z,97200.72
2023-05-24T07:43:28.893Z,97206.84
2023-05-24T07:45:57.971Z,97200.94
2023-05-24T07:48:25.974Z,97204.97
2023-05-24T07:50:55.007Z,97209.22
2023-05-24T07:53:23.437Z,97221.78
2023-05-24T07:55:51.757Z,97207.91
2023-05-24T07:58:19.567Z,97212.66
2023-05-24T08:00:47.239Z,97212.13
2023-05-24T08:03:18.137Z,97214.63
2023-05-24T08:05:46.217Z,97212.59
2023-05-24T08:08:14.040Z,97217.00
2023-05-24T08:10:41.904Z,97209.94
2023-05-24T08:13:09.590Z,97214.50
2023-05-24T08:15:37.341Z,97215.97
2023-05-24T08:18:05.472Z,97197.34
2023-05-24T08:20:36.246Z,97216.28
2023-05-24T08:23:04.577Z,97210.44
2023-05-24T08:25:33.032Z,97217.81
2023-05-24T08:28:01.155Z,97220.53
2023-05-24T08:30:29.141Z,97228.78
2023-05-24T08:32:58.307Z,97220.78
2023-05-24T08:35:26.089Z,97217.69
2023-05-24T08:37:55.231Z,97220.31
2023-05-24T08:40:24.030Z,97224.72
2023-05-24T08:42:52.002Z,97226.88
2023-05-24T08:45:20.388Z,97229.66
2023-05-24T08:47:48.862Z,97231.16
2023-05-24T08:50:16.866Z,97234.84
2023-05-24T08:52:45.263Z,97233.00
2023-05-24T08:55:14.623Z,97233.44
2023-05-24T08:57:42.967Z,97248.03
2023-05-24T09:00:12.818Z,97242.56
2023-05-24T09:02:42.686Z,97240.00
2023-05-24T09:05:14.622Z,97243.72
2023-05-24T09:07:43.576Z,97236.13
2023-05-24T09:10:12.332Z,97234.09
2023-05-24T09:12:45.859Z,97239.81
2023-05-24T09:15:13.433Z,97236.44
2023-05-24T09:17:41.531Z,97240.31
2023-05-24T09:20:11.066Z,97242.84
2023-05-24T09:22:41.086Z,97246.56
2023-05-24T09:25:11.160Z,97245.16
2023-05-24T09:27:38.957Z,97252.75
2023-05-24T09:30:12.951Z,97231.66
2023-05-24T09:32:41.189Z,97253.56
2023-05-24T09:35:10.439Z,97246.81
2023-05-24T09:37:40.472Z,97252.53
2023-05-24T09:40:12.512Z,97253.34
2023-05-24T09:42:40.105Z,97255.34
2023-05-24T09:45:10.700Z,97228.66
2023-05-24T09:47:39.489Z,97255.81
2023-05-24T09:50:14.048Z,97252.13
2023-05-24T09:52:42.016Z,97249.28
2023-05-24T09:55:13.665Z,97249.66
2023-05-24T09:57:41.258Z,97243.53
2023-05-24T10:00:17.703Z,97236.97
2023-05-24T10:02:53.290Z,97230.84
2023-05-24T10:05:21.991Z,97222.78
2023-05-24T10:07:49.802Z,97221.38
2023-05-24T10:10:17.825Z,97224.53
2023-05-24T10:12:46.822Z,97232.00
2023-05-24T10:15:16.694Z,97228.47
2023-05-24T10:17:44.422Z,97235.31
2023-05-24T10:20:13.288Z,97226.88
2023-05-24T10:22:44.149Z,97218.41
2023-05-24T10:25:14.656Z,97221.81
2023-05-24T10:27:42.608Z,97204.16
2023-05-24T10:30:15.665Z,97185.69
2023-05-24T10:32:45.379Z,97220.09
2023-05-24T10:35:14.888Z,97219.47
2023-05-24T10:37:43.032Z,97225.88
2023-05-24T10:40:19.930Z,97219.94
2023-05-24T10:42:48.251Z,97226.78
2023-05-24T10:45:33.451Z,97228.16
2023-05-24T10:48:10.366Z,97227.63
2023-05-24T10:50:37.969Z,97216.91
2023-05-24T10:53:15.786Z,97199.63
2023-05-24T10:55:54.180Z,97220.38
2023-05-24T10:58:23.314Z,97215.28
2023-05-24T11:00:53.327Z,97208.66
2023-05-24T11:03:24.822Z,97212.97
2023-05-24T11:05:54.668Z,97221.81
2023-05-24T11:08:24.716Z,97229.22
2023-05-24T11:10:53.053Z,97223.88
2023-05-24T11:13:21.819Z,97228.78
2023-05-24T11:15:52.606Z,97226.19
2023-05-24T11:18:24.576Z,97232.84
2023-05-24T11:20:52.556Z,97232.66
2023-05-24T11:23:20.562Z,97237.81
2023-05-24T11:25:48.704Z,97232.53
2023-05-24T11:28:16.473Z,97220.69
2023-05-24T11:30:45.502Z,97214.16
2023-05-24T11:33:18.467Z,97216.00
2023-05-24T11:35:47.952Z,97205.84
2023-05-24T11:38:17.644Z,97210.53
2023-05-24T11:40:47.640Z,97213.78
2023-05-24T11:43:16.887Z,97211.13
2023-05-24T11:45:46.125Z,97215.22
2023-05-24T11:48:14.061Z,97219.72
2023-05-24T11:50:49.316Z,97220.03
2023-05-24T11:53:19.949Z,97221.78
2023-05-24T11:55:48.694Z,97222.09
2023-05-24T11:58:22.461Z,97218.22
2023-05-24T12:00:50.420Z,97192.50
2023-05-24T12:03:18.224Z,97223.75
2023-05-24T12:05:45.913Z,97226.47
2023-05-24T12:08:15.449Z,97232.81
2023-05-24T12:10:44.908Z,97231.31
2023-05-24T12:13:22.646Z,97225.19
2023-05-24T12:15:55.627Z,97228.94
2023-05-24T12:18:26.023Z,97219.41
2023-05-24T12:20:54.083Z,97218.47
2023-05-24T12:23:24.459Z,97209.34
2023-05-24T12:25:59.216Z,97205.94
2023-05-24T12:28:27.621Z,97195.56
2023-05-24T12:30:55.433Z,97198.00
2023-05-24T12:33:23.271Z,97195.19
2023-05-24T12:35:51.284Z,97190.75
2023-05-24T12:38:25.419Z,97183.13
2023-05-24T12:41:11.501Z,97165.75
2023-05-24T12:43:41.700Z,97187.16
2023-05-24T12:46:09.347Z,97190.75
2023-05-24T12:48:37.194Z,97195.66
2023-05-24T12:51:04.921Z,97183.09
2023-05-24T12:53:32.620Z,97199.06
2023-05-24T12:56:01.725Z,97211.81
2023-05-24T12:58:29.447Z,97216.31
2023-05-24T13:00:57.633Z,97204.50
2023-05-24T13:03:25.383Z,97201.88
2023-05-24T13:05:53.249Z,97196.03
2023-05-24T13:08:21.809Z,97206.59
2023-05-24T13:10:50.687Z,97195.88
2023-05-24T13:13:19.791Z,97207.44
2023-05-24T13:15:47.611Z,97207.22
2023-05-24T13:18:15.334Z,97195.09
2023-05-24T13:20:43.477Z,97194.16
2023-05-24T13:23:11.306Z,97194.06
2023-05-24T13:25:39.015Z,97179.75
2023-05-24T13:28:07.059Z,97176.63
2023-05-24T13:30:36.358Z,97165.44
2023-05-24T13:33:04.123Z,97153.72
2023-05-24T13:35:32.285Z,97172.56
2023-05-24T13:38:00.138Z,97182.59
2023-05-24T13:40:27.811Z,97185.38
2023-05-24T13:42:58.905Z,97187.16
2023-05-24T13:45:27.054Z,97190.19
2023-05-24T13:48:03.688Z,97184.09
2023-05-24T13:50:31.516Z,97185.72
2023-05-24T13:52:59.783Z,97176.66
2023-05-24T13:55:28.707Z,97167.16
2023-05-24T13:57:57.245Z,97176.59
2023-05-24T14:00:25.402Z,97180.56
2023-05-24T14:02:53.678Z,97175.09
2023-05-24T14:07:54.187Z,97168.66
2023-05-24T14:10:22.140Z,97179.56
2023-05-24T14:13:03.294Z,97169.91
2023-05-24T14:15:37.921Z,97170.34
2023-05-24T14:18:08.268Z,97154.03
2023-05-24T14:20:40.171Z,97145.78
2023-05-24T14:23:08.709Z,97153.81
2023-05-24T14:25:36.681Z,97178.41
2023-05-24T14:28:04.697Z,97179.91
2023-05-24T14:30:32.859Z,97190.75
2023-05-24T14:33:00.868Z,97185.59
2023-05-24T14:35:28.936Z,97181.19
2023-05-24T14:37:58.000Z,97188.47
2023-05-24T14:40:25.836Z,97184.72
2023-05-24T14:42:55.375Z,97184.31
2023-05-24T14:45:23.180Z,97181.66
2023-05-24T14:47:50.868Z,97184.00
2023-05-24T14:50:18.607Z,97176.16
2023-05-24T14:52:46.385Z,97159.75
2023-05-24T14:55:18.192Z,97185.69
2023-05-24T14:57:46.158Z,97180.66
2023-05-24T15:00:15.342Z,97191.91
2023-05-24T15:02:43.436Z,97193.19
2023-05-24T15:05:11.151Z,97181.09
2023-05-24T15:07:38.862Z,97180.31
2023-05-24T15:10:07.798Z,97172.06
2023-05-24T15:12:36.847Z,97183.09
2023-05-24T15:15:06.681Z,97184.34
2023-05-24T15:17:34.428Z,97171.50
2023-05-24T15:20:02.376Z,97153.66
2023-05-24T15:22:30.133Z,97177.44
2023-05-24T15:24:57.875Z,97159.53
2023-05-24T15:27:25.608Z,97169.28
2023-05-24T15:29:58.955Z,97170.94
2023-05-24T15:32:26.963Z,97178.50
2023-05-24T15:34:54.634Z,97166.28
2023-05-24T15:37:22.597Z,97170.38
2023-05-24T15:39:51.509Z,97175.78
2023-05-24T15:42:20.487Z,97165.31
2023-05-24T15:44:48.179Z,97166.88
2023-05-24T15:47:17.866Z,97163.19
2023-05-24T15:49:47.671Z,97167.84
2023-05-24T15:52:15.312Z,97162.69
2023-05-24T15:54:43.016Z,97158.06
2023-05-24T15:57:10.925Z,97164.97
2023-05-24T15:59:38.846Z,97127.94
2023-05-24T16:02:07.220Z,97159.00
2023-05-24T16:04:36.662Z,97151.97
2023-05-24T16:07:04.364Z,97160.50
2023-05-24T16:09:32.398Z,97160.31
2023-05-24T16:12:00.994Z,97164.44
2023-05-24T16:14:29.978Z,97164.44
2023-05-24T16:17:00.427Z,97166.03
2023-05-24T16:19:29.310Z,97147.75
2023-05-24T16:21:58.432Z,97165.03
2023-05-24T16:24:26.206Z,97157.41
2023-05-24T16:26:53.929Z,97159.75
2023-05-24T16:29:21.784Z,97159.09
2023-05-24T16:31:49.643Z,97157.09
2023-05-24T16:34:17.423Z,97157.16
2023-05-24T16:36:45.765Z,97133.47
2023-05-24T16:39:14.949Z,97141.31
2023-05-24T16:41:42.674Z,97167.16
2023-05-24T16:44:10.617Z,97157.72
2023-05-24T16:46:38.452Z,97160.00
2023-05-24T16:49:06.468Z,97163.47
2023-05-24T16:51:34.357Z,97167.44
2023-05-24T16:54:02.036Z,97164.16
2023-05-24T16:56:31.131Z,97167.44
2023-05-24T16:58:58.820Z,97159.44
2023-05-24T17:01:26.552Z,97157.19
2023-05-24T17:03:54.396Z,97155.16
2023-05-24T17:06:22.623Z,97146.16
2023-05-24T17:08:51.430Z,97147.63
2023-05-24T17:11:19.897Z,97175.50
2023-05-24T17:13:49.019Z,97173.44
2023-05-24T17:16:16.805Z,97173.03
2023-05-24T17:18:44.540Z,97179.78
2023-05-24T17:21:12.327Z,97180.81
2023-05-24T17:23:40.155Z,97150.31
2023-05-24T17:26:09.514Z,97172.84
2023-05-24T17:28:37.274Z,97173.88
2023-05-24T17:31:08.998Z,97175.50
2023-05-24T17:33:36.761Z,97188.22
2023-05-24T17:36:06.245Z,97190.66
2023-05-24T17:38:34.183Z,97185.75
2023-05-24T17:41:02.016Z,97184.50
2023-05-24T17:43:32.468Z,97195.56
2023-05-24T17:46:05.905Z,97197.19
2023-05-24T17:48:36.417Z,97190.22
2023-05-24T17:51:05.859Z,97192.63
2023-05-24T17:53:34.943Z,97198.81
2023-05-24T17:56:03.442Z,97201.47
2023-05-24T17:58:35.541Z,97206.94
2023-05-24T18:01:05.098Z,97164.09
2023-05-24T18:03:33.630Z,97200.34
2023-05-24T18:06:03.969Z,97204.56
2023-05-24T18:08:31.764Z,97195.75
2023-05-24T18:10:59.579Z,97199.00
2023-05-24T18:13:28.164Z,97206.75
2023-05-24T18:15:56.946Z,97211.41
2023-05-24T18:18:24.650Z,97207.94
2023-05-24T18:20:53.100Z,97215.25
2023-05-24T18:23:22.920Z,97209.69
2023-05-24T18:25:50.629Z,97207.59
2023-05-24T18:28:28.426Z,97213.72
2023-05-24T18:30:56.213Z,97205.28
2023-05-24T18:33:24.092Z,97212.47
2023-05-24T18:35:51.884Z,97217.09
2023-05-24T18:38:19.590Z,97184.84
2023-05-24T18:40:48.596Z,97213.47
2023-05-24T18:43:16.336Z,97217.06
2023-05-24T18:45:44.331Z,97220.84
2023-05-24T18:48:12.488Z,97226.94
2023-05-24T18:50:40.220Z,97225.91
2023-05-24T18:53:08.868Z,97228.53
2023-05-24T18:55:36.625Z,97229.66
2023-05-24T18:58:06.677Z,97232.50
2023-05-24T19:00:34.482Z,97239.31
2023-05-24T19:03:02.265Z,97236.78
2023-05-24T19:05:30.046Z,97241.66
2023-05-24T19:07:57.752Z,97239.19
2023-05-24T19:10:25.467Z,97243.97
2023-05-24T19:12:53.206Z,97239.03
2023-05-24T19:15:22.613Z,97252.41
2023-05-24T19:17:50.588Z,97232.78
2023-05-24T19:20:18.326Z,97247.31
2023-05-24T19:22:46.071Z,97267.50
2023-05-24T19:25:13.758Z,97261.78
2023-05-24T19:27:54.869Z,97270.06
2023-05-24T19:30:28.179Z,97266.16
2023-05-24T19:32:55.975Z,97270.81
2023-05-24T19:35:23.746Z,97268.53
2023-05-24T19:37:52.200Z,97260.69
2023-05-24T19:40:20.059Z,97273.56
2023-05-24T19:42:48.038Z,97285.88
2023-05-24T19:45:16.359Z,97280.44
2023-05-24T19:47:46.408Z,97290.28
2023-05-24T19:50:14.228Z,97284.13
2023-05-24T19:52:41.908Z,97287.78
2023-05-24T19:55:10.602Z,97283.72
2023-05-24T19:57:38.785Z,97264.88
2023-05-24T20:00:07.821Z,97287.81
2023-05-24T20:02:36.592Z,97295.31
2023-05-24T20:05:06.952Z,97286.53
2023-05-24T20:07:34.632Z,97287.31
2023-05-24T20:10:05.052Z,97290.13
2023-05-24T20:12:34.551Z,97297.78
2023-05-24T20:15:02.443Z,97301.81
2023-05-24T20:17:30.169Z,97306.09
2023-05-24T20:19:57.914Z,97310.44
2023-05-24T20:22:27.034Z,97306.97
2023-05-24T20:24:54.732Z,97309.69
2023-05-24T20:27:22.472Z,97312.63
2023-05-24T20:29:50.162Z,97312.13
2023-05-24T20:32:17.932Z,97311.03
2023-05-24T20:34:45.711Z,97311.44
2023-05-24T20:37:13.400Z,97309.13
2023-05-24T20:39:42.441Z,97305.81
2023-05-24T20:42:10.117Z,97304.19
2023-05-24T20:44:38.351Z,97314.97
2023-05-24T20:47:06.266Z,97227.03
2023-05-24T20:49:36.406Z,97315.69
2023-05-24T20:52:04.294Z,97314.44
2023-05-24T20:54:32.052Z,97315.25
2023-05-24T20:57:01.965Z,97311.31
2023-05-24T20:59:29.742Z,97318.41
2023-05-24T21:01:57.576Z,97316.94
2023-05-24T21:04:25.455Z,97325.19
2023-05-24T21:06:55.145Z,97327.13
2023-05-24T21:09:22.962Z,97319.50
2023-05-24T21:11:50.645Z,97310.97
2023-05-24T21:14:19.743Z,97326.78
2023-05-24T21:16:47.461Z,97329.09
2023-05-24T21:19:15.158Z,97336.19
2023-05-24T21:21:42.866Z,97336.84
2023-05-24T21:24:10.610Z,97331.91
2023-05-24T21:26:38.245Z,97334.06
2023-05-24T21:29:05.942Z,97344.13
2023-05-24T21:31:35.865Z,97341.81
2023-05-24T21:34:03.718Z,97346.94
2023-05-24T21:36:31.659Z,97338.22
2023-05-24T21:38:59.385Z,97346.31
2023-05-24T21:41:27.746Z,97349.09
2023-05-24T21:43:55.418Z,97352.75
2023-05-24T21:46:23.154Z,97350.00
2023-05-24T21:48:52.235Z,97357.44
2023-05-24T21:51:19.932Z,97357.06
2023-05-24T21:53:47.628Z,97359.38
2023-05-24T21:56:15.472Z,97362.88
2023-05-24T21:58:43.201Z,97363.22
2023-05-24T22:01:11.242Z,97354.28
2023-05-24T22:03:39.008Z,97368.00
2023-05-24T22:06:09.557Z,97366.69
2023-05-24T22:08:37.181Z,97370.47
2023-05-24T22:11:04.978Z,97380.72
2023-05-24T22:13:32.669Z,97369.00
2023-05-24T22:16:00.896Z,97348.06
2023-05-24T22:18:30.457Z,97373.09
2023-05-24T22:20:59.235Z,97367.50
2023-05-24T22:23:28.268Z,97365.72
2023-05-24T22:25:56.178Z,97368.50
2023-05-24T22:28:24.821Z,97368.72
2023-05-24T22:30:52.979Z,97370.22
2023-05-24T22:33:20.812Z,97383.25
2023-05-24T22:35:48.534Z,97366.75
2023-05-24T22:38:16.209Z,97378.94
2023-05-24T22:40:46.752Z,97377.66
2023-05-24T22:43:14.417Z,97383.47
2023-05-24T22:45:42.340Z,97364.31
2023-05-24T22:48:10.437Z,97383.31
2023-05-24T22:50:39.787Z,97376.72
2023-05-24T22:53:09.121Z,97380.53
2023-05-24T22:55:36.830Z,97375.41
2023-05-24T22:58:05.866Z,97375.41
2023-05-24T23:00:33.588Z,97381.50
2023-05-24T23:03:01.294Z,97352.78
2023-05-24T23:05:29.018Z,97382.66
2023-05-24T23:07:58.294Z,97380.22
2023-05-24T23:10:25.979Z,97379.03
2023-05-24T23:12:53.744Z,97377.56
2023-05-24T23:15:22.765Z,97377.69
2023-05-24T23:17:52.411Z,97377.88
2023-05-24T23:20:20.324Z,97380.34
2023-05-24T23:22:48.397Z,97379.84
2023-05-24T23:25:16.082Z,97369.94
2023-05-24T23:27:43.787Z,97385.75
2023-05-24T23:30:11.945Z,97380.28
2023-05-24T23:32:41.063Z,97380.94
2023-05-24T23:35:09.537Z,97384.56
2023-05-24T23:37:37.228Z,97385.19
2023-05-24T23:40:06.660Z,97388.16
2023-05-24T23:42:34.412Z,97385.16
2023-05-24T23:45:02.269Z,97380.06
2023-05-24T23:47:29.955Z,97376.25
2023-05-24T23:49:59.098Z,97376.44
2023-05-24T23:52:27.062Z,97380.06
2023-05-24T23:54:54.819Z,97376.59
2023-05-24T23:57:24.940Z,97380.38
2023-05-24T23:59:52.680Z,97389.97
